sensor_id;sensor_type;location;lat;lon;timestamp;P1;durP1;ratioP1;P2;durP2;ratioP2
25846;SDS011;13676;50.168;8.568;2024-02-16T00:00:04;4.73;;;2.17;;
25846;SDS011;13676;50.168;8.568;2024-02-16T00:02:30;3.63;;;2.05;;
25846;SDS011;13676;50.168;8.568;2024-02-16T00:04:57;4.45;;;2.25;;
25846;SDS011;13676;50.168;8.568;2024-02-16T00:07:23;6.82;;;2.40;;
25846;SDS011;13676;50.168;8.568;2024-02-16T00:09:49;5.38;;;2.10;;
25846;SDS011;13676;50.168;8.568;2024-02-16T00:12:15;4.43;;;2.22;;
25846;SDS011;13676;50.168;8.568;2024-02-16T00:14:41;4.47;;;2.30;;
25846;SDS011;13676;50.168;8.568;2024-02-16T00:17:07;5.60;;;2.63;;
25846;SDS011;13676;50.168;8.568;2024-02-16T00:19:33;5.28;;;2.60;;
25846;SDS011;13676;50.168;8.568;2024-02-16T00:21:58;4.65;;;2.40;;
25846;SDS011;13676;50.168;8.568;2024-02-16T00:24:24;3.20;;;2.13;;
25846;SDS011;13676;50.168;8.568;2024-02-16T00:26:51;3.67;;;1.90;;
25846;SDS011;13676;50.168;8.568;2024-02-16T00:29:17;5.10;;;2.63;;
25846;SDS011;13676;50.168;8.568;2024-02-16T00:31:42;3.33;;;2.05;;
25846;SDS011;13676;50.168;8.568;2024-02-16T00:34:07;4.88;;;1.95;;
25846;SDS011;13676;50.168;8.568;2024-02-16T00:36:34;4.80;;;1.98;;
25846;SDS011;13676;50.168;8.568;2024-02-16T00:39:01;5.22;;;2.20;;
25846;SDS011;13676;50.168;8.568;2024-02-16T00:41:28;2.70;;;1.88;;
25846;SDS011;13676;50.168;8.568;2024-02-16T00:43:54;7.15;;;1.75;;
25846;SDS011;13676;50.168;8.568;2024-02-16T00:46:21;3.90;;;2.30;;
25846;SDS011;13676;50.168;8.568;2024-02-16T00:48:52;4.03;;;1.67;;
25846;SDS011;13676;50.168;8.568;2024-02-16T00:51:19;4.18;;;2.03;;
25846;SDS011;13676;50.168;8.568;2024-02-16T00:53:47;2.42;;;1.75;;
25846;SDS011;13676;50.168;8.568;2024-02-16T00:56:12;2.97;;;2.10;;
25846;SDS011;13676;50.168;8.568;2024-02-16T00:58:41;2.55;;;1.95;;
25846;SDS011;13676;50.168;8.568;2024-02-16T01:01:07;5.47;;;2.72;;
25846;SDS011;13676;50.168;8.568;2024-02-16T01:03:35;4.13;;;2.10;;
25846;SDS011;13676;50.168;8.568;2024-02-16T01:06:02;3.72;;;2.17;;
25846;SDS011;13676;50.168;8.568;2024-02-16T01:08:29;6.45;;;2.40;;
25846;SDS011;13676;50.168;8.568;2024-02-16T01:10:55;4.27;;;2.37;;
25846;SDS011;13676;50.168;8.568;2024-02-16T01:13:20;2.67;;;1.70;;
25846;SDS011;13676;50.168;8.568;2024-02-16T01:15:46;4.18;;;1.73;;
25846;SDS011;13676;50.168;8.568;2024-02-16T01:18:12;2.47;;;1.75;;
25846;SDS011;13676;50.168;8.568;2024-02-16T01:20:38;6.63;;;1.95;;
25846;SDS011;13676;50.168;8.568;2024-02-16T01:23:05;3.80;;;1.92;;
25846;SDS011;13676;50.168;8.568;2024-02-16T01:25:31;6.38;;;2.45;;
25846;SDS011;13676;50.168;8.568;2024-02-16T01:27:57;4.03;;;2.10;;
25846;SDS011;13676;50.168;8.568;2024-02-16T01:30:22;6.10;;;2.20;;
25846;SDS011;13676;50.168;8.568;2024-02-16T01:32:47;4.40;;;1.88;;
25846;SDS011;13676;50.168;8.568;2024-02-16T01:35:14;4.43;;;2.20;;
25846;SDS011;13676;50.168;8.568;2024-02-16T01:37:40;3.13;;;2.00;;
25846;SDS011;13676;50.168;8.568;2024-02-16T01:40:06;3.22;;;2.00;;
25846;SDS011;13676;50.168;8.568;2024-02-16T01:42:43;3.05;;;1.90;;
25846;SDS011;13676;50.168;8.568;2024-02-16T01:45:09;7.10;;;2.33;;
25846;SDS011;13676;50.168;8.568;2024-02-16T01:47:35;3.30;;;1.90;;
25846;SDS011;13676;50.168;8.568;2024-02-16T01:50:02;3.50;;;1.95;;
25846;SDS011;13676;50.168;8.568;2024-02-16T01:52:28;5.40;;;2.00;;
25846;SDS011;13676;50.168;8.568;2024-02-16T01:54:56;3.80;;;2.33;;
25846;SDS011;13676;50.168;8.568;2024-02-16T01:57:22;4.05;;;2.20;;
25846;SDS011;13676;50.168;8.568;2024-02-16T01:59:47;7.38;;;2.08;;
25846;SDS011;13676;50.168;8.568;2024-02-16T02:02:15;4.03;;;2.20;;
25846;SDS011;13676;50.168;8.568;2024-02-16T02:04:41;3.83;;;2.10;;
25846;SDS011;13676;50.168;8.568;2024-02-16T02:07:14;7.72;;;2.15;;
25846;SDS011;13676;50.168;8.568;2024-02-16T02:09:41;5.57;;;2.10;;
25846;SDS011;13676;50.168;8.568;2024-02-16T02:12:10;2.78;;;1.90;;
25846;SDS011;13676;50.168;8.568;2024-02-16T02:14:36;3.40;;;2.03;;
25846;SDS011;13676;50.168;8.568;2024-02-16T02:17:02;4.00;;;2.25;;
25846;SDS011;13676;50.168;8.568;2024-02-16T02:19:30;5.15;;;2.30;;
25846;SDS011;13676;50.168;8.568;2024-02-16T02:21:56;5.65;;;2.38;;
25846;SDS011;13676;50.168;8.568;2024-02-16T02:24:22;4.57;;;2.13;;
25846;SDS011;13676;50.168;8.568;2024-02-16T02:26:47;7.80;;;2.45;;
25846;SDS011;13676;50.168;8.568;2024-02-16T02:29:13;4.45;;;2.47;;
25846;SDS011;13676;50.168;8.568;2024-02-16T02:31:40;4.15;;;2.08;;
25846;SDS011;13676;50.168;8.568;2024-02-16T02:34:07;5.95;;;2.15;;
25846;SDS011;13676;50.168;8.568;2024-02-16T02:36:33;4.63;;;2.40;;
25846;SDS011;13676;50.168;8.568;2024-02-16T02:38:58;4.93;;;2.50;;
25846;SDS011;13676;50.168;8.568;2024-02-16T02:41:24;3.67;;;2.13;;
25846;SDS011;13676;50.168;8.568;2024-02-16T02:43:50;4.07;;;2.20;;
25846;SDS011;13676;50.168;8.568;2024-02-16T02:46:16;5.32;;;2.20;;
25846;SDS011;13676;50.168;8.568;2024-02-16T02:48:44;4.22;;;2.85;;
25846;SDS011;13676;50.168;8.568;2024-02-16T02:51:10;5.30;;;2.88;;
25846;SDS011;13676;50.168;8.568;2024-02-16T02:53:37;5.35;;;2.97;;
25846;SDS011;13676;50.168;8.568;2024-02-16T02:56:03;6.50;;;3.05;;
25846;SDS011;13676;50.168;8.568;2024-02-16T02:58:30;2.75;;;2.30;;
25846;SDS011;13676;50.168;8.568;2024-02-16T03:00:55;3.35;;;2.28;;
25846;SDS011;13676;50.168;8.568;2024-02-16T03:03:22;6.20;;;3.58;;
25846;SDS011;13676;50.168;8.568;2024-02-16T03:05:47;7.88;;;3.00;;
25846;SDS011;13676;50.168;8.568;2024-02-16T03:08:14;6.60;;;3.33;;
25846;SDS011;13676;50.168;8.568;2024-02-16T03:10:39;5.97;;;3.03;;
25846;SDS011;13676;50.168;8.568;2024-02-16T03:13:05;6.00;;;2.97;;
25846;SDS011;13676;50.168;8.568;2024-02-16T03:15:32;5.55;;;3.35;;
25846;SDS011;13676;50.168;8.568;2024-02-16T03:17:58;6.40;;;3.30;;
25846;SDS011;13676;50.168;8.568;2024-02-16T03:20:24;8.23;;;3.53;;
25846;SDS011;13676;50.168;8.568;2024-02-16T03:22:50;7.55;;;3.42;;
25846;SDS011;13676;50.168;8.568;2024-02-16T03:25:16;5.70;;;3.40;;
25846;SDS011;13676;50.168;8.568;2024-02-16T03:27:41;8.38;;;3.55;;
25846;SDS011;13676;50.168;8.568;2024-02-16T03:30:08;6.30;;;3.42;;
25846;SDS011;13676;50.168;8.568;2024-02-16T03:32:33;6.82;;;2.80;;
25846;SDS011;13676;50.168;8.568;2024-02-16T03:35:00;4.38;;;3.00;;
25846;SDS011;13676;50.168;8.568;2024-02-16T03:37:27;8.45;;;3.08;;
25846;SDS011;13676;50.168;8.568;2024-02-16T03:39:52;6.88;;;3.20;;
25846;SDS011;13676;50.168;8.568;2024-02-16T03:42:18;5.15;;;3.25;;
25846;SDS011;13676;50.168;8.568;2024-02-16T03:44:44;6.43;;;3.47;;
25846;SDS011;13676;50.168;8.568;2024-02-16T03:47:11;6.15;;;3.20;;
25846;SDS011;13676;50.168;8.568;2024-02-16T03:49:38;6.70;;;2.90;;
25846;SDS011;13676;50.168;8.568;2024-02-16T03:52:04;8.18;;;3.30;;
25846;SDS011;13676;50.168;8.568;2024-02-16T03:54:32;7.25;;;3.15;;
25846;SDS011;13676;50.168;8.568;2024-02-16T03:56:57;9.10;;;3.40;;
25846;SDS011;13676;50.168;8.568;2024-02-16T03:59:23;7.10;;;3.53;;
25846;SDS011;13676;50.168;8.568;2024-02-16T04:01:48;7.57;;;3.70;;
25846;SDS011;13676;50.168;8.568;2024-02-16T04:04:14;6.38;;;3.22;;
25846;SDS011;13676;50.168;8.568;2024-02-16T04:06:40;6.28;;;3.20;;
25846;SDS011;13676;50.168;8.568;2024-02-16T04:09:05;7.50;;;3.60;;
25846;SDS011;13676;50.168;8.568;2024-02-16T04:11:31;9.65;;;3.50;;
25846;SDS011;13676;50.168;8.568;2024-02-16T04:13:58;4.47;;;3.25;;
25846;SDS011;13676;50.168;8.568;2024-02-16T04:16:24;6.05;;;3.60;;
25846;SDS011;13676;50.168;8.568;2024-02-16T04:18:50;7.30;;;3.80;;
25846;SDS011;13676;50.168;8.568;2024-02-16T04:21:16;5.22;;;3.47;;
25846;SDS011;13676;50.168;8.568;2024-02-16T04:23:41;9.35;;;4.00;;
25846;SDS011;13676;50.168;8.568;2024-02-16T04:26:07;5.82;;;4.05;;
25846;SDS011;13676;50.168;8.568;2024-02-16T04:28:33;6.32;;;3.55;;
25846;SDS011;13676;50.168;8.568;2024-02-16T04:30:59;5.47;;;3.63;;
25846;SDS011;13676;50.168;8.568;2024-02-16T04:33:26;7.55;;;3.65;;
25846;SDS011;13676;50.168;8.568;2024-02-16T04:35:51;6.28;;;3.88;;
25846;SDS011;13676;50.168;8.568;2024-02-16T04:38:18;10.00;;;4.28;;
25846;SDS011;13676;50.168;8.568;2024-02-16T04:40:43;8.10;;;4.33;;
25846;SDS011;13676;50.168;8.568;2024-02-16T04:43:09;9.50;;;4.35;;
25846;SDS011;13676;50.168;8.568;2024-02-16T04:45:35;6.78;;;4.38;;
25846;SDS011;13676;50.168;8.568;2024-02-16T04:48:04;8.18;;;4.43;;
25846;SDS011;13676;50.168;8.568;2024-02-16T04:50:32;8.15;;;4.40;;
25846;SDS011;13676;50.168;8.568;2024-02-16T04:52:58;14.25;;;4.80;;
25846;SDS011;13676;50.168;8.568;2024-02-16T04:55:24;8.75;;;5.10;;
25846;SDS011;13676;50.168;8.568;2024-02-16T04:57:49;8.38;;;4.45;;
25846;SDS011;13676;50.168;8.568;2024-02-16T05:00:16;7.45;;;4.55;;
25846;SDS011;13676;50.168;8.568;2024-02-16T05:02:42;7.82;;;4.65;;
25846;SDS011;13676;50.168;8.568;2024-02-16T05:05:08;10.05;;;4.97;;
25846;SDS011;13676;50.168;8.568;2024-02-16T05:07:35;9.73;;;5.07;;
25846;SDS011;13676;50.168;8.568;2024-02-16T05:10:02;8.65;;;4.60;;
25846;SDS011;13676;50.168;8.568;2024-02-16T05:12:28;6.30;;;3.73;;
25846;SDS011;13676;50.168;8.568;2024-02-16T05:14:54;8.98;;;4.70;;
25846;SDS011;13676;50.168;8.568;2024-02-16T05:17:21;5.82;;;4.15;;
25846;SDS011;13676;50.168;8.568;2024-02-16T05:19:49;7.65;;;3.92;;
25846;SDS011;13676;50.168;8.568;2024-02-16T05:22:15;7.90;;;5.20;;
25846;SDS011;13676;50.168;8.568;2024-02-16T05:24:42;11.02;;;5.35;;
25846;SDS011;13676;50.168;8.568;2024-02-16T05:27:07;12.00;;;5.72;;
25846;SDS011;13676;50.168;8.568;2024-02-16T05:29:33;18.75;;;6.10;;
25846;SDS011;13676;50.168;8.568;2024-02-16T05:31:58;15.00;;;6.00;;
25846;SDS011;13676;50.168;8.568;2024-02-16T05:34:24;10.50;;;6.20;;
25846;SDS011;13676;50.168;8.568;2024-02-16T05:36:50;8.57;;;4.95;;
25846;SDS011;13676;50.168;8.568;2024-02-16T05:39:17;11.32;;;5.50;;
25846;SDS011;13676;50.168;8.568;2024-02-16T05:41:53;10.15;;;5.25;;
25846;SDS011;13676;50.168;8.568;2024-02-16T05:44:18;6.82;;;4.97;;
25846;SDS011;13676;50.168;8.568;2024-02-16T05:46:45;7.45;;;4.82;;
25846;SDS011;13676;50.168;8.568;2024-02-16T05:49:11;7.88;;;4.43;;
25846;SDS011;13676;50.168;8.568;2024-02-16T05:51:40;7.05;;;4.40;;
25846;SDS011;13676;50.168;8.568;2024-02-16T05:54:06;9.63;;;4.05;;
25846;SDS011;13676;50.168;8.568;2024-02-16T05:56:36;7.22;;;4.30;;
25846;SDS011;13676;50.168;8.568;2024-02-16T05:59:04;7.30;;;4.85;;
25846;SDS011;13676;50.168;8.568;2024-02-16T06:01:30;5.90;;;3.72;;
25846;SDS011;13676;50.168;8.568;2024-02-16T06:03:56;9.93;;;4.53;;
25846;SDS011;13676;50.168;8.568;2024-02-16T06:06:21;7.07;;;4.38;;
25846;SDS011;13676;50.168;8.568;2024-02-16T06:08:47;5.68;;;3.70;;
25846;SDS011;13676;50.168;8.568;2024-02-16T06:11:13;13.15;;;5.15;;
25846;SDS011;13676;50.168;8.568;2024-02-16T06:13:40;6.70;;;4.22;;
25846;SDS011;13676;50.168;8.568;2024-02-16T06:16:06;7.35;;;4.53;;
25846;SDS011;13676;50.168;8.568;2024-02-16T06:18:33;7.10;;;3.97;;
25846;SDS011;13676;50.168;8.568;2024-02-16T06:20:59;7.50;;;4.53;;
25846;SDS011;13676;50.168;8.568;2024-02-16T06:23:25;10.05;;;5.93;;
25846;SDS011;13676;50.168;8.568;2024-02-16T06:25:51;8.45;;;4.68;;
25846;SDS011;13676;50.168;8.568;2024-02-16T06:28:17;7.88;;;5.18;;
25846;SDS011;13676;50.168;8.568;2024-02-16T06:30:44;6.00;;;4.28;;
25846;SDS011;13676;50.168;8.568;2024-02-16T06:33:09;9.55;;;4.75;;
25846;SDS011;13676;50.168;8.568;2024-02-16T06:35:35;7.75;;;4.75;;
25846;SDS011;13676;50.168;8.568;2024-02-16T06:38:01;7.68;;;4.50;;
25846;SDS011;13676;50.168;8.568;2024-02-16T06:40:26;6.60;;;4.65;;
25846;SDS011;13676;50.168;8.568;2024-02-16T06:42:52;6.43;;;4.15;;
25846;SDS011;13676;50.168;8.568;2024-02-16T06:45:17;10.23;;;4.75;;
25846;SDS011;13676;50.168;8.568;2024-02-16T06:47:43;8.75;;;5.43;;
25846;SDS011;13676;50.168;8.568;2024-02-16T06:50:08;12.80;;;5.20;;
25846;SDS011;13676;50.168;8.568;2024-02-16T06:52:34;7.68;;;4.72;;
25846;SDS011;13676;50.168;8.568;2024-02-16T06:55:00;9.90;;;5.25;;
25846;SDS011;13676;50.168;8.568;2024-02-16T06:57:28;8.35;;;4.70;;
25846;SDS011;13676;50.168;8.568;2024-02-16T06:59:54;7.25;;;4.72;;
25846;SDS011;13676;50.168;8.568;2024-02-16T07:02:22;10.63;;;6.10;;
25846;SDS011;13676;50.168;8.568;2024-02-16T07:04:48;10.73;;;6.00;;
25846;SDS011;13676;50.168;8.568;2024-02-16T07:07:13;9.68;;;5.70;;
25846;SDS011;13676;50.168;8.568;2024-02-16T07:09:39;10.48;;;5.68;;
25846;SDS011;13676;50.168;8.568;2024-02-16T07:12:05;12.73;;;6.32;;
25846;SDS011;13676;50.168;8.568;2024-02-16T07:14:31;14.00;;;6.30;;
25846;SDS011;13676;50.168;8.568;2024-02-16T07:16:57;16.45;;;6.30;;
25846;SDS011;13676;50.168;8.568;2024-02-16T07:19:23;12.13;;;6.30;;
25846;SDS011;13676;50.168;8.568;2024-02-16T07:21:51;14.95;;;6.95;;
25846;SDS011;13676;50.168;8.568;2024-02-16T07:26:43;14.18;;;7.20;;
25846;SDS011;13676;50.168;8.568;2024-02-16T07:29:09;15.13;;;6.00;;
25846;SDS011;13676;50.168;8.568;2024-02-16T07:31:34;19.35;;;7.85;;
25846;SDS011;13676;50.168;8.568;2024-02-16T07:34:03;38.38;;;9.63;;
25846;SDS011;13676;50.168;8.568;2024-02-16T07:36:29;21.85;;;8.07;;
25846;SDS011;13676;50.168;8.568;2024-02-16T07:38:55;20.48;;;8.10;;
25846;SDS011;13676;50.168;8.568;2024-02-16T07:41:21;14.77;;;7.85;;
25846;SDS011;13676;50.168;8.568;2024-02-16T07:43:46;15.35;;;7.40;;
25846;SDS011;13676;50.168;8.568;2024-02-16T07:46:11;12.15;;;7.05;;
25846;SDS011;13676;50.168;8.568;2024-02-16T07:48:38;19.40;;;7.03;;
25846;SDS011;13676;50.168;8.568;2024-02-16T07:51:05;18.23;;;7.32;;
25846;SDS011;13676;50.168;8.568;2024-02-16T07:53:31;17.25;;;7.57;;
25846;SDS011;13676;50.168;8.568;2024-02-16T07:55:56;14.05;;;7.63;;
25846;SDS011;13676;50.168;8.568;2024-02-16T07:58:23;25.80;;;8.68;;
25846;SDS011;13676;50.168;8.568;2024-02-16T08:00:49;19.58;;;7.90;;
25846;SDS011;13676;50.168;8.568;2024-02-16T08:03:16;13.65;;;7.78;;
25846;SDS011;13676;50.168;8.568;2024-02-16T08:05:42;10.10;;;6.70;;
25846;SDS011;13676;50.168;8.568;2024-02-16T08:08:07;20.35;;;7.50;;
25846;SDS011;13676;50.168;8.568;2024-02-16T08:10:33;13.95;;;7.85;;
25846;SDS011;13676;50.168;8.568;2024-02-16T08:12:58;13.18;;;7.28;;
25846;SDS011;13676;50.168;8.568;2024-02-16T08:15:23;10.93;;;7.05;;
25846;SDS011;13676;50.168;8.568;2024-02-16T08:17:50;15.02;;;7.35;;
25846;SDS011;13676;50.168;8.568;2024-02-16T08:20:16;13.27;;;7.50;;
25846;SDS011;13676;50.168;8.568;2024-02-16T08:22:42;9.07;;;5.97;;
25846;SDS011;13676;50.168;8.568;2024-02-16T08:25:07;17.25;;;6.82;;
25846;SDS011;13676;50.168;8.568;2024-02-16T08:27:33;13.95;;;7.75;;
25846;SDS011;13676;50.168;8.568;2024-02-16T08:29:58;12.13;;;7.93;;
25846;SDS011;13676;50.168;8.568;2024-02-16T08:32:24;11.65;;;6.82;;
25846;SDS011;13676;50.168;8.568;2024-02-16T08:34:50;19.05;;;7.03;;
25846;SDS011;13676;50.168;8.568;2024-02-16T08:37:17;10.77;;;7.55;;
25846;SDS011;13676;50.168;8.568;2024-02-16T08:39:44;12.23;;;7.15;;
25846;SDS011;13676;50.168;8.568;2024-02-16T08:42:09;13.57;;;8.05;;
25846;SDS011;13676;50.168;8.568;2024-02-16T08:44:36;12.93;;;7.50;;
25846;SDS011;13676;50.168;8.568;2024-02-16T08:47:02;11.13;;;8.40;;
25846;SDS011;13676;50.168;8.568;2024-02-16T08:49:28;19.77;;;8.18;;
25846;SDS011;13676;50.168;8.568;2024-02-16T08:51:53;11.07;;;6.97;;
25846;SDS011;13676;50.168;8.568;2024-02-16T08:54:19;18.85;;;7.45;;
25846;SDS011;13676;50.168;8.568;2024-02-16T08:56:47;15.02;;;8.10;;
25846;SDS011;13676;50.168;8.568;2024-02-16T08:59:13;16.35;;;8.75;;
25846;SDS011;13676;50.168;8.568;2024-02-16T09:01:43;14.00;;;8.10;;
25846;SDS011;13676;50.168;8.568;2024-02-16T09:04:08;15.23;;;8.02;;
25846;SDS011;13676;50.168;8.568;2024-02-16T09:06:34;37.05;;;10.20;;
25846;SDS011;13676;50.168;8.568;2024-02-16T09:09:03;18.55;;;7.80;;
25846;SDS011;13676;50.168;8.568;2024-02-16T09:11:29;15.02;;;7.90;;
25846;SDS011;13676;50.168;8.568;2024-02-16T09:13:55;13.50;;;6.93;;
25846;SDS011;13676;50.168;8.568;2024-02-16T09:16:20;15.98;;;7.05;;
25846;SDS011;13676;50.168;8.568;2024-02-16T09:18:47;26.80;;;7.97;;
25846;SDS011;13676;50.168;8.568;2024-02-16T09:21:17;15.45;;;7.15;;
25846;SDS011;13676;50.168;8.568;2024-02-16T09:23:42;16.03;;;7.50;;
25846;SDS011;13676;50.168;8.568;2024-02-16T09:26:07;17.20;;;7.00;;
25846;SDS011;13676;50.168;8.568;2024-02-16T09:28:38;56.15;;;10.85;;
25846;SDS011;13676;50.168;8.568;2024-02-16T09:31:05;16.40;;;7.45;;
25846;SDS011;13676;50.168;8.568;2024-02-16T09:33:31;14.85;;;6.90;;
25846;SDS011;13676;50.168;8.568;2024-02-16T09:35:57;12.60;;;6.60;;
25846;SDS011;13676;50.168;8.568;2024-02-16T09:38:22;10.20;;;6.30;;
25846;SDS011;13676;50.168;8.568;2024-02-16T09:40:49;10.00;;;6.30;;
25846;SDS011;13676;50.168;8.568;2024-02-16T09:43:28;11.13;;;5.78;;
25846;SDS011;13676;50.168;8.568;2024-02-16T09:45:55;10.88;;;7.05;;
25846;SDS011;13676;50.168;8.568;2024-02-16T09:48:21;12.23;;;6.53;;
25846;SDS011;13676;50.168;8.568;2024-02-16T09:50:48;13.90;;;6.63;;
25846;SDS011;13676;50.168;8.568;2024-02-16T09:53:15;20.10;;;7.28;;
25846;SDS011;13676;50.168;8.568;2024-02-16T09:55:41;10.23;;;7.00;;
25846;SDS011;13676;50.168;8.568;2024-02-16T09:58:07;26.88;;;7.47;;
25846;SDS011;13676;50.168;8.568;2024-02-16T10:00:32;24.65;;;8.00;;
25846;SDS011;13676;50.168;8.568;2024-02-16T10:02:58;27.67;;;8.77;;
25846;SDS011;13676;50.168;8.568;2024-02-16T10:05:24;29.90;;;8.48;;
25846;SDS011;13676;50.168;8.568;2024-02-16T10:07:50;22.83;;;7.35;;
25846;SDS011;13676;50.168;8.568;2024-02-16T10:10:25;23.00;;;7.57;;
25846;SDS011;13676;50.168;8.568;2024-02-16T10:13:05;19.35;;;7.78;;
25846;SDS011;13676;50.168;8.568;2024-02-16T10:15:31;16.10;;;6.97;;
25846;SDS011;13676;50.168;8.568;2024-02-16T10:17:58;12.98;;;7.20;;
25846;SDS011;13676;50.168;8.568;2024-02-16T10:20:30;29.65;;;8.95;;
25846;SDS011;13676;50.168;8.568;2024-02-16T10:23:09;17.67;;;7.13;;
25846;SDS011;13676;50.168;8.568;2024-02-16T10:25:36;13.10;;;7.18;;
25846;SDS011;13676;50.168;8.568;2024-02-16T10:28:03;10.23;;;6.72;;
25846;SDS011;13676;50.168;8.568;2024-02-16T10:35:27;12.02;;;6.40;;
25846;SDS011;13676;50.168;8.568;2024-02-16T10:43:03;9.70;;;6.78;;
25846;SDS011;13676;50.168;8.568;2024-02-16T10:48:06;14.40;;;6.68;;
25846;SDS011;13676;50.168;8.568;2024-02-16T11:03:17;11.38;;;6.70;;
25846;SDS011;13676;50.168;8.568;2024-02-16T11:05:48;11.52;;;6.15;;
25846;SDS011;13676;50.168;8.568;2024-02-16T11:08:20;12.93;;;6.47;;
25846;SDS011;13676;50.168;8.568;2024-02-16T11:10:58;10.15;;;6.35;;
25846;SDS011;13676;50.168;8.568;2024-02-16T11:13:26;9.90;;;6.72;;
25846;SDS011;13676;50.168;8.568;2024-02-16T11:15:56;12.48;;;6.55;;
25846;SDS011;13676;50.168;8.568;2024-02-16T11:18:23;12.40;;;6.50;;
25846;SDS011;13676;50.168;8.568;2024-02-16T11:20:49;14.15;;;6.75;;
25846;SDS011;13676;50.168;8.568;2024-02-16T11:23:14;11.98;;;7.22;;
25846;SDS011;13676;50.168;8.568;2024-02-16T11:25:49;12.60;;;6.47;;
25846;SDS011;13676;50.168;8.568;2024-02-16T11:28:16;10.95;;;5.97;;
25846;SDS011;13676;50.168;8.568;2024-02-16T11:30:43;9.23;;;5.85;;
25846;SDS011;13676;50.168;8.568;2024-02-16T11:33:11;12.75;;;6.53;;
25846;SDS011;13676;50.168;8.568;2024-02-16T11:35:39;8.65;;;5.85;;
25846;SDS011;13676;50.168;8.568;2024-02-16T11:40:30;9.48;;;6.13;;
25846;SDS011;13676;50.168;8.568;2024-02-16T11:42:59;10.98;;;6.45;;
25846;SDS011;13676;50.168;8.568;2024-02-16T11:45:25;11.43;;;6.43;;
25846;SDS011;13676;50.168;8.568;2024-02-16T11:48:02;10.65;;;5.80;;
25846;SDS011;13676;50.168;8.568;2024-02-16T11:50:36;9.27;;;5.95;;
25846;SDS011;13676;50.168;8.568;2024-02-16T11:53:01;9.83;;;5.50;;
25846;SDS011;13676;50.168;8.568;2024-02-16T11:55:26;12.30;;;6.20;;
25846;SDS011;13676;50.168;8.568;2024-02-16T11:57:52;9.52;;;5.95;;
25846;SDS011;13676;50.168;8.568;2024-02-16T12:00:19;10.10;;;5.43;;
25846;SDS011;13676;50.168;8.568;2024-02-16T12:02:45;9.15;;;5.47;;
25846;SDS011;13676;50.168;8.568;2024-02-16T12:05:13;8.85;;;5.50;;
25846;SDS011;13676;50.168;8.568;2024-02-16T12:07:40;9.63;;;5.57;;
25846;SDS011;13676;50.168;8.568;2024-02-16T12:10:06;9.85;;;6.20;;
25846;SDS011;13676;50.168;8.568;2024-02-16T12:12:32;13.63;;;6.75;;
25846;SDS011;13676;50.168;8.568;2024-02-16T12:19:51;12.75;;;6.43;;
25846;SDS011;13676;50.168;8.568;2024-02-16T12:22:17;19.70;;;6.95;;
25846;SDS011;13676;50.168;8.568;2024-02-16T12:24:46;10.40;;;5.28;;
25846;SDS011;13676;50.168;8.568;2024-02-16T12:27:12;12.38;;;6.18;;
25846;SDS011;13676;50.168;8.568;2024-02-16T12:29:38;14.75;;;6.53;;
25846;SDS011;13676;50.168;8.568;2024-02-16T12:32:04;10.45;;;5.38;;
25846;SDS011;13676;50.168;8.568;2024-02-16T12:34:30;9.57;;;5.63;;
25846;SDS011;13676;50.168;8.568;2024-02-16T12:36:56;11.52;;;5.03;;
25846;SDS011;13676;50.168;8.568;2024-02-16T12:39:21;9.27;;;5.53;;
25846;SDS011;13676;50.168;8.568;2024-02-16T12:41:47;8.68;;;5.20;;
25846;SDS011;13676;50.168;8.568;2024-02-16T12:44:13;9.65;;;5.53;;
25846;SDS011;13676;50.168;8.568;2024-02-16T12:46:39;12.60;;;6.78;;
25846;SDS011;13676;50.168;8.568;2024-02-16T12:49:05;12.70;;;6.25;;
25846;SDS011;13676;50.168;8.568;2024-02-16T12:51:31;12.00;;;5.47;;
25846;SDS011;13676;50.168;8.568;2024-02-16T12:53:57;13.65;;;5.68;;
25846;SDS011;13676;50.168;8.568;2024-02-16T12:56:23;8.10;;;4.82;;
25846;SDS011;13676;50.168;8.568;2024-02-16T12:58:48;13.05;;;5.93;;
25846;SDS011;13676;50.168;8.568;2024-02-16T13:01:15;8.25;;;4.72;;
25846;SDS011;13676;50.168;8.568;2024-02-16T13:03:43;7.97;;;4.25;;
25846;SDS011;13676;50.168;8.568;2024-02-16T13:06:08;11.82;;;4.65;;
25846;SDS011;13676;50.168;8.568;2024-02-16T13:08:34;6.47;;;4.20;;
25846;SDS011;13676;50.168;8.568;2024-02-16T13:11:00;10.13;;;4.60;;
25846;SDS011;13676;50.168;8.568;2024-02-16T13:13:25;9.80;;;4.60;;
25846;SDS011;13676;50.168;8.568;2024-02-16T13:15:50;11.45;;;4.85;;
25846;SDS011;13676;50.168;8.568;2024-02-16T13:18:16;8.35;;;4.38;;
25846;SDS011;13676;50.168;8.568;2024-02-16T13:20:45;9.43;;;4.10;;
25846;SDS011;13676;50.168;8.568;2024-02-16T13:23:13;10.98;;;4.05;;
25846;SDS011;13676;50.168;8.568;2024-02-16T13:25:38;8.15;;;4.28;;
25846;SDS011;13676;50.168;8.568;2024-02-16T13:28:05;8.02;;;4.15;;
25846;SDS011;13676;50.168;8.568;2024-02-16T13:33:13;6.68;;;3.65;;
25846;SDS011;13676;50.168;8.568;2024-02-16T13:35:38;10.52;;;4.53;;
25846;SDS011;13676;50.168;8.568;2024-02-16T13:40:31;13.95;;;4.47;;
25846;SDS011;13676;50.168;8.568;2024-02-16T13:42:58;6.88;;;3.88;;
25846;SDS011;13676;50.168;8.568;2024-02-16T13:45:28;11.95;;;4.18;;
25846;SDS011;13676;50.168;8.568;2024-02-16T13:47:56;10.43;;;4.60;;
25846;SDS011;13676;50.168;8.568;2024-02-16T13:50:21;20.27;;;4.07;;
25846;SDS011;13676;50.168;8.568;2024-02-16T13:52:47;11.48;;;4.22;;
25846;SDS011;13676;50.168;8.568;2024-02-16T13:55:14;6.95;;;3.22;;
25846;SDS011;13676;50.168;8.568;2024-02-16T13:57:39;6.68;;;3.05;;
25846;SDS011;13676;50.168;8.568;2024-02-16T14:00:05;10.75;;;3.72;;
25846;SDS011;13676;50.168;8.568;2024-02-16T14:02:31;8.13;;;3.22;;
25846;SDS011;13676;50.168;8.568;2024-02-16T14:07:26;16.35;;;3.85;;
25846;SDS011;13676;50.168;8.568;2024-02-16T14:09:51;20.88;;;5.05;;
25846;SDS011;13676;50.168;8.568;2024-02-16T14:12:17;17.40;;;4.13;;
25846;SDS011;13676;50.168;8.568;2024-02-16T14:14:42;14.77;;;3.80;;
25846;SDS011;13676;50.168;8.568;2024-02-16T14:17:11;6.75;;;3.00;;
25846;SDS011;13676;50.168;8.568;2024-02-16T14:19:37;5.45;;;2.70;;
25846;SDS011;13676;50.168;8.568;2024-02-16T14:22:03;6.38;;;2.78;;
25846;SDS011;13676;50.168;8.568;2024-02-16T14:24:30;4.40;;;2.35;;
25846;SDS011;13676;50.168;8.568;2024-02-16T14:26:56;6.88;;;2.63;;
25846;SDS011;13676;50.168;8.568;2024-02-16T14:29:24;5.05;;;2.85;;
25846;SDS011;13676;50.168;8.568;2024-02-16T14:31:50;23.67;;;4.15;;
25846;SDS011;13676;50.168;8.568;2024-02-16T14:34:15;15.02;;;3.55;;
25846;SDS011;13676;50.168;8.568;2024-02-16T14:36:41;6.65;;;3.13;;
25846;SDS011;13676;50.168;8.568;2024-02-16T14:39:08;6.45;;;2.85;;
25846;SDS011;13676;50.168;8.568;2024-02-16T14:41:35;6.18;;;3.22;;
25846;SDS011;13676;50.168;8.568;2024-02-16T14:44:00;4.70;;;2.65;;
25846;SDS011;13676;50.168;8.568;2024-02-16T14:46:26;6.40;;;3.30;;
25846;SDS011;13676;50.168;8.568;2024-02-16T14:48:52;8.38;;;3.80;;
25846;SDS011;13676;50.168;8.568;2024-02-16T14:51:18;7.70;;;3.45;;
25846;SDS011;13676;50.168;8.568;2024-02-16T14:56:10;7.15;;;3.47;;
25846;SDS011;13676;50.168;8.568;2024-02-16T14:58:35;12.45;;;3.72;;
25846;SDS011;13676;50.168;8.568;2024-02-16T15:33:54;6.45;;;2.90;;
25846;SDS011;13676;50.168;8.568;2024-02-16T16:03:43;10.77;;;4.30;;
25846;SDS011;13676;50.168;8.568;2024-02-16T16:08:47;7.60;;;3.80;;
25846;SDS011;13676;50.168;8.568;2024-02-16T16:11:12;10.60;;;4.17;;
25846;SDS011;13676;50.168;8.568;2024-02-16T16:13:39;10.48;;;3.80;;
25846;SDS011;13676;50.168;8.568;2024-02-16T16:16:04;5.85;;;3.67;;
25846;SDS011;13676;50.168;8.568;2024-02-16T16:18:30;4.93;;;3.20;;
25846;SDS011;13676;50.168;8.568;2024-02-16T16:21:01;7.40;;;3.47;;
25846;SDS011;13676;50.168;8.568;2024-02-16T16:23:27;12.52;;;4.68;;
25846;SDS011;13676;50.168;8.568;2024-02-16T16:25:54;5.13;;;3.50;;